Time;durP1;ratioP1;P1;durP2;ratioP2;P2;SDS_P1;SDS_P2;PMS_P1;PMS_P2;Temp;Humidity;BMP_temperature;BMP_pressure;BME280_temperature;BME280_humidity;BME280_pressure;Samples;Min_cycle;Max_cycle;Signal;HPM_P1;HPM_P2
2022/12/07 00:01:13;;;;;;;8.45;1.02;;;3.80;99.90;;;;;;5029532;28;20434;-73
2022/12/07 00:03:40;;;;;;;9.88;1.10;;;3.90;99.90;;;;;;5007686;28;20440;-72
2022/12/07 00:06:07;;;;;;;8.02;1.15;;;4.00;99.90;;;;;;5018938;28;20482;-73
2022/12/07 00:08:33;;;;;;;7.50;0.98;;;4.00;99.90;;;;;;5014117;28;20531;-72
2022/12/07 00:11:11;;;;;;;6.00;0.60;;;4.00;99.90;;;;;;5013434;28;20823;-72
2022/12/07 00:13:37;;;;;;;5.43;0.75;;;4.00;99.90;;;;;;4994983;28;20421;-73
2022/12/07 00:16:15;;;;;;;8.00;1.65;;;4.10;99.90;;;;;;4986997;28;20489;-72
2022/12/07 00:18:42;;;;;;;8.15;1.30;;;4.10;99.90;;;;;;5013695;28;20407;-72
2022/12/07 00:21:16;;;;;;;6.20;0.80;;;4.10;99.90;;;;;;5001351;28;20411;-73
2022/12/07 00:23:43;;;;;;;7.68;0.82;;;4.10;99.90;;;;;;4996188;28;20524;-73
2022/12/07 00:26:13;;;;;;;6.27;0.83;;;4.20;99.90;;;;;;4996395;28;20437;-73
2022/12/07 00:28:39;;;;;;;6.07;0.77;;;4.20;99.90;;;;;;4979805;28;20449;-73
2022/12/07 00:31:10;;;;;;;6.07;0.70;;;4.30;99.90;;;;;;5007321;28;20782;-72
2022/12/07 00:33:38;;;;;;;5.65;0.63;;;4.30;99.90;;;;;;4989624;28;20415;-73
2022/12/07 00:36:06;;;;;;;4.95;0.90;;;4.40;99.90;;;;;;4995628;28;20491;-73
2022/12/07 00:38:34;;;;;;;6.55;0.85;;;4.40;99.90;;;;;;5007481;28;20411;-72
2022/12/07 00:41:02;;;;;;;7.38;0.70;;;4.40;99.90;;;;;;4989917;28;20424;-73
2022/12/07 00:43:28;;;;;;;4.97;0.60;;;4.40;99.90;;;;;;5007943;28;20439;-72
2022/12/07 00:45:54;;;;;;;6.05;0.63;;;4.40;99.90;;;;;;4994659;28;20792;-73
2022/12/07 00:48:21;;;;;;;10.05;1.08;;;4.40;99.90;;;;;;5009942;28;20455;-72
2022/12/07 00:50:47;;;;;;;7.40;0.68;;;4.40;99.90;;;;;;5009239;28;20818;-73
2022/12/07 00:53:13;;;;;;;4.90;0.60;;;4.40;99.90;;;;;;4997092;28;20412;-73
2022/12/07 00:55:38;;;;;;;7.20;1.10;;;4.40;99.90;;;;;;5015540;28;20409;-72
2022/12/07 00:58:04;;;;;;;8.13;1.08;;;4.30;99.90;;;;;;5015735;28;20416;-73
2022/12/07 01:00:30;;;;;;;9.10;0.68;;;4.30;99.90;;;;;;4998318;28;20491;-73
2022/12/07 01:02:56;;;;;;;7.55;0.82;;;4.30;99.90;;;;;;5010610;28;20408;-73
2022/12/07 01:05:21;;;;;;;9.40;1.30;;;4.30;99.90;;;;;;5012068;28;20404;-72
2022/12/07 01:07:47;;;;;;;10.03;1.40;;;4.40;99.90;;;;;;5022168;28;20447;-72
2022/12/07 01:10:15;;;;;;;9.25;0.90;;;4.40;99.90;;;;;;5037217;28;20848;-73
2022/12/07 01:12:41;;;;;;;7.82;1.10;;;4.40;99.90;;;;;;5010764;28;21240;-73
2022/12/07 01:15:08;;;;;;;8.43;0.80;;;4.50;99.90;;;;;;5015879;28;20422;-72
2022/12/07 01:17:33;;;;;;;6.60;0.85;;;4.50;99.90;;;;;;5028054;28;20750;-73
2022/12/07 01:19:59;;;;;;;13.52;1.20;;;4.50;99.90;;;;;;5028473;28;20457;-72
2022/12/07 01:22:24;;;;;;;11.80;1.00;;;4.60;99.90;;;;;;5032056;28;20413;-72
2022/12/07 01:24:50;;;;;;;8.33;0.80;;;4.60;99.90;;;;;;5038539;28;20437;-72
2022/12/07 01:27:16;;;;;;;9.85;1.15;;;4.70;99.90;;;;;;5023915;28;20775;-72
2022/12/07 01:29:41;;;;;;;6.63;0.60;;;4.70;99.90;;;;;;5035112;28;20433;-73
2022/12/07 01:32:07;;;;;;;6.78;0.70;;;4.60;99.90;;;;;;5031363;28;20536;-72
2022/12/07 01:34:33;;;;;;;6.27;0.70;;;4.70;99.90;;;;;;5044522;28;20484;-72
2022/12/07 01:36:58;;;;;;;7.33;0.87;;;4.60;99.90;;;;;;5036866;28;20438;-72
2022/12/07 01:39:24;;;;;;;7.03;0.70;;;4.60;99.90;;;;;;5036969;28;20399;-72
2022/12/07 01:41:50;;;;;;;4.95;0.70;;;4.60;99.90;;;;;;5027575;28;20398;-72
2022/12/07 01:44:22;;;;;;;4.43;0.63;;;4.60;99.90;;;;;;5010479;28;20514;-72
2022/12/07 01:46:56;;;;;;;7.55;0.80;;;4.60;99.90;;;;;;5034486;28;20419;-72
2022/12/07 01:49:39;;;;;;;4.82;0.60;;;4.50;99.90;;;;;;5032475;28;20411;-73
2022/12/07 01:52:13;;;;;;;6.00;0.52;;;4.50;99.90;;;;;;5028052;28;20408;-72
2022/12/07 01:54:39;;;;;;;4.85;0.73;;;4.50;99.90;;;;;;5016134;28;20506;-72
2022/12/07 01:57:07;;;;;;;6.75;0.63;;;4.50;99.90;;;;;;5035731;28;20494;-72
2022/12/07 01:59:33;;;;;;;6.60;0.90;;;4.50;99.90;;;;;;5033712;28;20408;-72
2022/12/07 02:02:01;;;;;;;8.43;1.15;;;4.60;99.90;;;;;;5017539;28;20913;-73
2022/12/07 02:04:28;;;;;;;6.53;0.50;;;4.70;99.90;;;;;;5029212;28;20423;-72
2022/12/07 02:06:55;;;;;;;8.33;1.23;;;4.70;99.90;;;;;;5036879;28;20410;-72
2022/12/07 02:09:20;;;;;;;5.63;0.70;;;4.70;99.90;;;;;;5020406;28;20427;-73
2022/12/07 02:11:46;;;;;;;8.85;0.90;;;4.70;99.90;;;;;;5037454;28;20406;-72
2022/12/07 02:14:12;;;;;;;10.43;1.27;;;4.70;99.90;;;;;;5022137;28;20404;-73
2022/12/07 02:17:03;;;;;;;6.05;0.68;;;4.60;99.90;;;;;;5039325;28;20831;-73
2022/12/07 02:19:44;;;;;;;9.45;0.68;;;4.50;99.90;;;;;;5007321;28;20419;-73
2022/12/07 02:22:40;;;;;;;7.25;0.68;;;4.40;99.90;;;;;;5030595;28;20414;-73
2022/12/07 02:25:27;;;;;;;10.85;0.90;;;4.30;99.90;;;;;;5031686;28;21150;-73
2022/12/07 02:28:01;;;;;;;9.07;1.02;;;4.20;99.90;;;;;;5024499;28;20409;-73
2022/12/07 02:30:33;;;;;;;7.43;0.77;;;4.10;99.90;;;;;;5012608;28;20777;-73
2022/12/07 02:33:14;;;;;;;9.25;0.80;;;4.10;99.90;;;;;;5030837;28;20510;-73
2022/12/07 02:35:54;;;;;;;7.18;0.70;;;4.10;99.90;;;;;;5029651;28;20448;-73
2022/12/07 02:38:57;;;;;;;8.60;0.90;;;4.00;99.90;;;;;;5028072;28;20439;-73
2022/12/07 02:41:37;;;;;;;8.32;0.95;;;4.00;99.90;;;;;;5026612;28;20426;-73
2022/12/07 02:44:25;;;;;;;10.38;0.95;;;4.00;99.90;;;;;;5047569;28;20429;-73
2022/12/07 02:46:55;;;;;;;7.90;1.45;;;4.00;99.90;;;;;;5030352;28;20408;-73
2022/12/07 02:49:27;;;;;;;16.42;1.30;;;4.00;99.90;;;;;;5048823;28;20402;-73
2022/12/07 02:51:53;;;;;;;11.95;1.52;;;4.00;99.90;;;;;;5040558;28;20411;-73
2022/12/07 02:54:20;;;;;;;13.35;1.38;;;4.10;99.90;;;;;;5027851;28;20457;-73
2022/12/07 02:56:56;;;;;;;12.05;1.13;;;4.10;99.90;;;;;;5020382;28;20435;-73
2022/12/07 03:00:01;;;;;;;10.13;1.08;;;4.20;99.90;;;;;;5025983;28;20917;-73
2022/12/07 03:02:36;;;;;;;4.45;0.40;;;4.30;99.90;;;;;;5027036;28;20415;-73
2022/12/07 03:05:04;;;;;;;4.78;0.55;;;4.30;99.90;;;;;;5011911;28;20975;-73
2022/12/07 03:07:48;;;;;;;4.65;0.40;;;4.30;99.90;;;;;;5029344;28;20462;-73
2022/12/07 03:10:32;;;;;;;6.70;0.45;;;4.40;99.90;;;;;;5025367;28;20413;-73
2022/12/07 03:13:19;;;;;;;4.65;0.50;;;4.50;99.90;;;;;;5010930;28;20923;-73
2022/12/07 03:16:13;;;;;;;6.25;0.50;;;4.50;99.90;;;;;;5018169;28;20943;-74
2022/12/07 03:18:59;;;;;;;5.72;0.60;;;4.40;99.90;;;;;;5036491;28;20468;-73
2022/12/07 03:21:32;;;;;;;5.93;0.50;;;4.40;99.90;;;;;;5042066;28;20512;-73
2022/12/07 03:24:02;;;;;;;6.07;0.57;;;4.30;99.90;;;;;;5021369;28;21017;-73
2022/12/07 03:26:44;;;;;;;5.53;0.50;;;4.30;99.90;;;;;;5037198;28;20400;-73
2022/12/07 03:29:17;;;;;;;6.07;0.70;;;4.30;99.90;;;;;;5021769;28;20550;-72
2022/12/07 03:31:50;;;;;;;7.50;0.70;;;4.20;99.90;;;;;;5040367;28;20981;-73
2022/12/07 03:34:32;;;;;;;5.27;0.70;;;4.20;99.90;;;;;;5024066;28;20437;-73
2022/12/07 03:37:08;;;;;;;6.97;0.68;;;4.20;99.90;;;;;;5037395;28;20410;-73
2022/12/07 03:39:44;;;;;;;5.85;0.40;;;4.10;99.90;;;;;;5025959;28;20916;-73
2022/12/07 03:42:10;;;;;;;9.77;1.10;;;4.10;99.90;;;;;;5015739;28;20423;-73
2022/12/07 03:44:37;;;;;;;8.43;0.77;;;4.10;99.90;;;;;;5029284;28;20436;-73
2022/12/07 03:47:15;;;;;;;9.70;0.70;;;4.10;99.90;;;;;;5011584;28;20422;-73
2022/12/07 03:50:00;;;;;;;7.57;0.50;;;4.00;99.90;;;;;;5011534;28;20426;-73
2022/12/07 03:52:39;;;;;;;10.27;0.88;;;4.10;99.90;;;;;;5016329;28;20407;-73
2022/12/07 03:55:26;;;;;;;10.07;1.20;;;4.10;99.90;;;;;;5029081;28;20510;-73
2022/12/07 03:57:55;;;;;;;9.60;1.35;;;4.20;99.90;;;;;;5029233;28;20842;-73
2022/12/07 04:00:21;;;;;;;6.53;0.73;;;4.20;99.90;;;;;;5011597;28;20448;-73
2022/12/07 04:02:47;;;;;;;9.27;0.70;;;4.20;99.90;;;;;;5040436;28;20401;-73
2022/12/07 04:05:13;;;;;;;5.65;0.80;;;4.20;99.90;;;;;;5047030;28;20476;-73
2022/12/07 04:07:39;;;;;;;7.40;0.60;;;4.20;99.90;;;;;;5018914;28;20494;-73
2022/12/07 04:10:05;;;;;;;5.18;0.55;;;4.20;99.90;;;;;;5016295;28;20917;-73
2022/12/07 04:12:31;;;;;;;3.67;0.40;;;4.20;99.90;;;;;;5028971;28;20407;-73
2022/12/07 04:14:57;;;;;;;6.65;0.57;;;4.20;99.90;;;;;;5012015;28;20409;-73
2022/12/07 04:17:22;;;;;;;4.33;0.30;;;4.10;99.90;;;;;;5028398;28;20827;-73
2022/12/07 04:19:48;;;;;;;5.47;0.50;;;4.10;99.90;;;;;;5024230;28;20419;-73
2022/12/07 04:22:14;;;;;;;4.70;0.40;;;4.10;99.90;;;;;;5002802;28;20407;-73
2022/12/07 04:24:39;;;;;;;4.00;0.40;;;4.10;99.90;;;;;;5010673;28;20447;-72
2022/12/07 04:27:05;;;;;;;5.50;0.57;;;4.00;99.90;;;;;;5027945;28;20793;-73
2022/12/07 04:29:30;;;;;;;5.90;0.55;;;4.00;99.90;;;;;;5027701;28;20415;-73
2022/12/07 04:31:56;;;;;;;4.73;0.60;;;4.00;99.90;;;;;;5011097;28;20407;-73
2022/12/07 04:34:22;;;;;;;12.35;0.95;;;4.00;99.90;;;;;;5028562;28;20426;-73
2022/12/07 04:36:48;;;;;;;9.33;1.30;;;4.00;99.90;;;;;;5028109;28;20418;-73
2022/12/07 04:39:20;;;;;;;10.73;1.13;;;4.00;99.90;;;;;;5006807;28;20448;-73
2022/12/07 04:41:45;;;;;;;9.52;1.05;;;4.10;99.90;;;;;;5021880;28;20418;-73
2022/12/07 04:44:14;;;;;;;8.25;1.00;;;4.10;99.90;;;;;;5010613;28;20443;-73
2022/12/07 04:46:41;;;;;;;5.75;0.80;;;4.10;99.90;;;;;;5022045;28;20466;-73
2022/12/07 04:49:06;;;;;;;6.60;0.68;;;4.20;99.90;;;;;;5038724;28;20544;-73
2022/12/07 04:51:32;;;;;;;8.50;0.60;;;4.20;99.90;;;;;;5022867;28;20499;-73
2022/12/07 04:53:58;;;;;;;7.65;0.50;;;4.30;99.90;;;;;;5038829;28;20406;-73
2022/12/07 04:56:23;;;;;;;7.30;0.90;;;4.40;99.90;;;;;;5023234;28;20402;-73
2022/12/07 04:58:50;;;;;;;5.75;0.70;;;4.40;99.90;;;;;;5021734;28;21202;-73
2022/12/07 05:01:17;;;;;;;3.92;0.50;;;4.30;99.90;;;;;;5023218;28;20406;-73
2022/12/07 05:03:43;;;;;;;6.95;0.50;;;4.30;99.90;;;;;;5034235;28;20437;-73
2022/12/07 05:06:09;;;;;;;4.30;0.40;;;4.30;99.90;;;;;;5033615;28;20414;-73
2022/12/07 05:08:35;;;;;;;5.32;0.60;;;4.20;99.90;;;;;;5035012;28;20786;-73
2022/12/07 05:11:01;;;;;;;4.50;0.35;;;4.10;99.90;;;;;;5035306;28;20421;-73
2022/12/07 05:13:27;;;;;;;6.57;0.70;;;4.10;99.90;;;;;;5040865;28;21373;-73
2022/12/07 05:15:53;;;;;;;5.97;0.40;;;4.00;99.90;;;;;;5037129;28;20777;-74
2022/12/07 05:18:18;;;;;;;6.45;0.85;;;3.90;99.90;;;;;;5033550;28;20800;-73
2022/12/07 05:20:45;;;;;;;4.77;0.40;;;3.90;99.90;;;;;;5012147;28;20900;-73
2022/12/07 05:23:11;;;;;;;5.15;0.65;;;3.90;99.90;;;;;;5041733;28;20417;-73
2022/12/07 05:25:37;;;;;;;7.38;0.60;;;3.90;99.90;;;;;;5037558;28;20415;-73
2022/12/07 05:28:03;;;;;;;6.43;0.70;;;3.90;99.90;;;;;;5035693;28;20414;-73
2022/12/07 05:30:29;;;;;;;5.45;0.57;;;3.90;99.90;;;;;;5035527;28;20407;-73
2022/12/07 05:32:55;;;;;;;5.95;0.65;;;3.80;99.90;;;;;;5018648;28;20761;-73
2022/12/07 05:35:21;;;;;;;6.78;0.60;;;3.80;99.90;;;;;;5027596;28;20465;-73
2022/12/07 05:37:47;;;;;;;6.20;0.73;;;3.80;99.90;;;;;;5027634;28;20407;-73
2022/12/07 05:40:14;;;;;;;5.47;0.60;;;3.80;99.90;;;;;;5022102;28;20464;-74
2022/12/07 05:42:41;;;;;;;5.03;0.60;;;3.90;99.90;;;;;;5023809;28;20462;-74
2022/12/07 05:45:07;;;;;;;7.67;0.50;;;3.90;99.90;;;;;;5013499;28;20987;-73
2022/12/07 05:47:33;;;;;;;6.40;0.50;;;4.00;99.90;;;;;;5036719;28;20441;-73
2022/12/07 05:49:59;;;;;;;4.43;0.70;;;4.00;99.90;;;;;;5026317;28;20435;-74
2022/12/07 05:52:25;;;;;;;6.40;1.10;;;4.00;99.90;;;;;;5031815;28;20900;-73
2022/12/07 05:54:51;;;;;;;4.32;0.57;;;3.90;99.90;;;;;;5031607;28;20407;-73
2022/12/07 05:57:17;;;;;;;6.97;0.50;;;3.90;99.90;;;;;;5039447;28;20415;-73
2022/12/07 05:59:43;;;;;;;3.70;0.40;;;3.80;99.90;;;;;;5024861;28;20461;-74
2022/12/07 06:02:15;;;;;;;9.60;0.93;;;3.80;99.90;;;;;;5019432;28;20453;-74
2022/12/07 06:04:43;;;;;;;9.73;1.33;;;3.70;99.90;;;;;;5014083;28;20449;-74
2022/12/07 06:07:10;;;;;;;8.23;0.87;;;3.70;99.90;;;;;;5021595;28;20407;-74
2022/12/07 06:09:36;;;;;;;10.50;0.95;;;3.70;99.90;;;;;;5016006;28;20696;-74
2022/12/07 06:14:47;;;;;;;5.65;0.80;;;3.70;99.90;;;;;;5031347;28;20405;-73
2022/12/07 06:17:13;;;;;;;6.83;0.87;;;3.70;99.90;;;;;;5005532;28;20418;-74
2022/12/07 06:19:39;;;;;;;9.47;1.07;;;3.80;99.90;;;;;;5016992;28;20414;-74
2022/12/07 06:22:05;;;;;;;7.97;0.88;;;3.80;99.90;;;;;;5013539;28;20414;-74
2022/12/07 06:24:31;;;;;;;11.17;1.40;;;3.80;99.90;;;;;;5017799;28;21006;-74
2022/12/07 06:26:57;;;;;;;16.27;1.23;;;3.80;99.90;;;;;;5031909;28;20437;-74
2022/12/07 06:29:23;;;;;;;8.38;1.30;;;3.80;99.90;;;;;;5033756;28;20405;-74
2022/12/07 06:31:49;;;;;;;12.50;1.40;;;3.80;99.90;;;;;;5030521;28;20573;-73
2022/12/07 06:34:18;;;;;;;10.70;1.27;;;3.70;99.90;;;;;;5034381;28;20401;-74
2022/12/07 06:36:44;;;;;;;15.40;1.57;;;3.70;99.90;;;;;;5033366;28;20796;-73
2022/12/07 06:39:10;;;;;;;12.43;1.50;;;3.70;99.90;;;;;;5033409;28;20418;-73
2022/12/07 06:41:37;;;;;;;9.03;1.50;;;3.70;99.90;;;;;;4995291;28;20411;-73
2022/12/07 06:44:04;;;;;;;8.90;0.93;;;3.60;99.90;;;;;;5030836;28;20439;-74
2022/12/07 06:46:30;;;;;;;9.23;1.45;;;3.60;99.90;;;;;;5025527;28;20440;-73
2022/12/07 06:48:55;;;;;;;8.73;1.52;;;3.60;99.90;;;;;;5027077;28;20430;-73
2022/12/07 06:51:21;;;;;;;10.98;1.42;;;3.50;99.90;;;;;;5036413;28;20428;-73
2022/12/07 06:53:47;;;;;;;10.57;1.17;;;3.60;99.90;;;;;;5025733;28;20988;-72
2022/12/07 06:56:12;;;;;;;10.00;1.20;;;3.50;99.90;;;;;;5030028;28;20977;-72
2022/12/07 06:58:39;;;;;;;8.77;1.20;;;3.50;99.90;;;;;;5019100;28;20411;-72
2022/12/07 07:01:14;;;;;;;11.57;1.13;;;3.50;99.90;;;;;;5029649;28;20415;-72
2022/12/07 07:03:39;;;;;;;7.75;1.00;;;3.50;99.90;;;;;;5014666;28;20805;-75
2022/12/07 07:06:07;;;;;;;12.60;1.42;;;3.40;99.90;;;;;;5031704;28;20399;-72
2022/12/07 07:08:36;;;;;;;8.88;1.17;;;3.40;99.90;;;;;;5014408;28;20419;-74
2022/12/07 07:11:03;;;;;;;8.87;1.20;;;3.40;99.90;;;;;;5014151;28;20494;-72
2022/12/07 07:13:28;;;;;;;12.00;1.27;;;3.30;99.90;;;;;;5011624;28;20419;-72
2022/12/07 07:15:54;;;;;;;10.00;1.23;;;3.30;99.90;;;;;;5029812;28;20410;-73
2022/12/07 07:18:20;;;;;;;10.35;1.40;;;3.30;99.90;;;;;;5033103;28;20913;-73
2022/12/07 07:20:46;;;;;;;10.63;1.00;;;3.20;99.90;;;;;;5033516;28;20482;-73
2022/12/07 07:23:12;;;;;;;12.23;1.40;;;3.10;99.90;;;;;;5035069;28;20542;-73
2022/12/07 07:25:37;;;;;;;11.57;1.35;;;3.10;99.90;;;;;;5008602;28;20863;-73
2022/12/07 07:28:03;;;;;;;11.97;1.30;;;3.10;99.90;;;;;;5034182;28;20397;-73
2022/12/07 07:30:29;;;;;;;10.32;1.83;;;3.00;99.90;;;;;;5021674;28;20445;-73
2022/12/07 07:32:59;;;;;;;10.70;1.20;;;3.00;99.90;;;;;;5011441;28;20445;-73
2022/12/07 07:35:26;;;;;;;11.60;1.50;;;2.90;99.90;;;;;;5028959;28;20419;-73
2022/12/07 07:37:51;;;;;;;10.10;1.20;;;3.00;99.90;;;;;;5019272;28;20425;-73
2022/12/07 07:40:17;;;;;;;8.43;1.10;;;2.90;99.90;;;;;;5003409;28;20533;-73
2022/12/07 07:42:43;;;;;;;11.00;1.80;;;2.90;99.90;;;;;;4994779;28;20422;-73
2022/12/07 07:45:09;;;;;;;13.63;1.63;;;2.90;99.90;;;;;;5029552;28;20801;-73
2022/12/07 07:47:35;;;;;;;11.80;1.77;;;3.00;99.90;;;;;;5028937;28;20422;-73
2022/12/07 07:50:00;;;;;;;11.52;1.58;;;3.00;99.90;;;;;;5024189;28;21035;-73
2022/12/07 07:52:26;;;;;;;13.60;1.50;;;3.10;99.90;;;;;;5041932;28;20407;-73
2022/12/07 07:54:52;;;;;;;9.47;1.27;;;3.10;99.90;;;;;;5011562;28;20414;-73
2022/12/07 07:57:18;;;;;;;9.95;1.27;;;3.20;99.90;;;;;;5016553;28;20403;-73
2022/12/07 07:59:43;;;;;;;9.90;1.52;;;3.30;99.90;;;;;;5029151;28;20423;-73
2022/12/07 08:02:15;;;;;;;6.97;1.00;;;3.30;99.90;;;;;;5016680;28;20781;-73
2022/12/07 08:04:41;;;;;;;10.90;1.48;;;3.40;99.90;;;;;;5011438;28;20439;-73
2022/12/07 08:07:06;;;;;;;10.75;1.75;;;3.40;99.90;;;;;;5029003;28;20410;-73
2022/12/07 08:09:32;;;;;;;10.57;1.60;;;3.40;99.90;;;;;;5030018;28;20417;-73
2022/12/07 08:11:58;;;;;;;11.80;1.10;;;3.50;99.90;;;;;;4996599;28;20499;-73
2022/12/07 08:14:24;;;;;;;7.78;1.05;;;3.50;99.90;;;;;;5008188;28;20480;-73
2022/12/07 08:16:50;;;;;;;11.18;1.30;;;3.50;99.90;;;;;;5031082;28;20413;-73
2022/12/07 08:19:16;;;;;;;10.65;0.82;;;3.50;99.90;;;;;;5019665;28;20412;-73
2022/12/07 08:21:42;;;;;;;10.95;1.20;;;3.50;99.90;;;;;;5029674;28;20454;-74
2022/12/07 08:24:07;;;;;;;10.18;1.55;;;3.50;99.90;;;;;;4996430;28;20474;-73
2022/12/07 08:26:33;;;;;;;14.27;1.45;;;3.60;99.90;;;;;;5026537;28;20411;-73
2022/12/07 08:28:59;;;;;;;10.43;1.30;;;3.60;99.90;;;;;;5021028;28;20413;-73
2022/12/07 08:31:27;;;;;;;6.70;1.00;;;3.70;99.90;;;;;;5015954;28;20521;-73
2022/12/07 08:33:53;;;;;;;9.30;1.25;;;3.70;99.90;;;;;;5031138;28;20417;-73
2022/12/07 08:36:19;;;;;;;5.87;0.90;;;3.80;99.90;;;;;;5015147;28;20481;-73
2022/12/07 08:38:45;;;;;;;12.27;0.97;;;3.90;99.90;;;;;;5028045;28;20415;-73
2022/12/07 08:41:11;;;;;;;8.68;1.13;;;3.90;99.90;;;;;;5035497;28;20430;-73
2022/12/07 08:43:37;;;;;;;7.60;1.35;;;4.00;99.90;;;;;;5028538;28;20517;-73
2022/12/07 08:46:19;;;;;;;7.78;0.95;;;4.10;99.90;;;;;;5013389;28;20428;-73
2022/12/07 08:49:13;;;;;;;7.40;0.77;;;4.20;99.90;;;;;;5044111;28;20456;-73
2022/12/07 08:51:39;;;;;;;5.47;1.02;;;4.20;99.90;;;;;;5028656;28;20422;-73
2022/12/07 08:54:08;;;;;;;2.53;0.40;;;4.20;99.90;;;;;;5028718;28;20411;-73
2022/12/07 08:56:35;;;;;;;2.85;0.20;;;4.20;99.90;;;;;;5028497;28;20493;-73
2022/12/07 08:59:01;;;;;;;4.55;0.45;;;4.30;99.90;;;;;;5034096;28;20767;-73
2022/12/07 09:01:26;;;;;;;4.07;0.50;;;4.40;99.90;;;;;;5033565;28;20399;-73
2022/12/07 09:03:52;;;;;;;4.38;0.75;;;4.50;99.90;;;;;;5028266;28;20773;-73
2022/12/07 09:06:18;;;;;;;4.20;0.40;;;4.60;99.90;;;;;;5029339;28;20407;-73
2022/12/07 09:08:49;;;;;;;3.97;0.47;;;4.70;99.90;;;;;;5028979;28;20449;-73
2022/12/07 09:11:14;;;;;;;7.70;1.15;;;4.70;99.90;;;;;;5027283;28;20785;-73
2022/12/07 09:13:40;;;;;;;11.40;3.97;;;4.80;99.90;;;;;;5015555;28;20445;-73
2022/12/07 09:16:06;;;;;;;9.80;3.22;;;4.80;99.90;;;;;;5028163;28;20414;-72
2022/12/07 09:18:31;;;;;;;7.57;1.15;;;4.90;99.90;;;;;;4992652;28;20909;-72
2022/12/07 09:20:57;;;;;;;5.87;1.40;;;4.90;99.90;;;;;;5028824;28;20403;-71
2022/12/07 09:23:23;;;;;;;6.90;1.50;;;5.00;99.90;;;;;;5026857;28;20433;-72
2022/12/07 09:25:48;;;;;;;8.53;0.80;;;5.10;99.90;;;;;;5011004;28;20407;-72
2022/12/07 09:28:14;;;;;;;7.53;1.10;;;5.20;99.90;;;;;;5018049;28;20414;-72
2022/12/07 09:30:46;;;;;;;3.65;0.65;;;5.20;99.90;;;;;;5029767;28;20407;-73
2022/12/07 09:33:11;;;;;;;5.80;0.60;;;5.30;99.90;;;;;;5026388;28;20406;-73
2022/12/07 09:35:37;;;;;;;7.93;0.87;;;5.40;99.90;;;;;;5027515;28;20809;-73
2022/12/07 09:38:03;;;;;;;6.35;0.70;;;5.40;99.90;;;;;;5009044;28;20800;-73
2022/12/07 09:40:28;;;;;;;8.50;0.97;;;5.50;99.90;;;;;;5029246;28;20423;-73
2022/12/07 09:42:55;;;;;;;5.10;0.80;;;5.50;99.90;;;;;;5009181;28;20472;-72
2022/12/07 09:45:30;;;;;;;7.68;0.82;;;5.50;99.90;;;;;;5025961;28;21023;-73
2022/12/07 09:47:58;;;;;;;7.20;0.47;;;5.40;99.90;;;;;;5017919;28;20440;-73
2022/12/07 09:50:25;;;;;;;6.95;0.70;;;5.40;99.90;;;;;;5042956;28;20411;-73
2022/12/07 09:52:53;;;;;;;6.47;0.70;;;5.30;99.90;;;;;;5035527;28;20414;-73
2022/12/07 09:55:24;;;;;;;4.90;0.55;;;5.30;99.90;;;;;;5030065;28;20431;-73
2022/12/07 09:57:51;;;;;;;4.25;0.70;;;5.30;99.90;;;;;;5036168;28;20485;-73
2022/12/07 10:00:21;;;;;;;5.78;0.93;;;5.30;99.90;;;;;;5027871;28;20411;-73
2022/12/07 10:03:01;;;;;;;5.43;0.67;;;5.40;99.90;;;;;;5026690;28;20746;-73
2022/12/07 10:05:42;;;;;;;7.13;1.00;;;5.40;99.90;;;;;;5045490;28;20484;-73
2022/12/07 10:08:11;;;;;;;6.00;0.63;;;5.50;99.90;;;;;;5030427;28;20411;-73
2022/12/07 10:10:38;;;;;;;4.63;0.60;;;5.50;99.90;;;;;;5009023;28;20490;-72
2022/12/07 10:13:12;;;;;;;6.90;1.00;;;5.60;99.90;;;;;;4979705;28;20421;-72
2022/12/07 10:15:56;;;;;;;9.82;1.25;;;5.70;99.90;;;;;;5036302;28;20409;-72
2022/12/07 10:18:41;;;;;;;6.75;1.02;;;5.70;99.90;;;;;;5026770;28;20419;-72
2022/12/07 10:21:12;;;;;;;8.77;1.10;;;5.80;99.90;;;;;;5039751;28;20811;-72
2022/12/07 10:24:03;;;;;;;7.03;0.80;;;5.90;99.90;;;;;;5018553;28;20440;-72
2022/12/07 10:26:31;;;;;;;7.03;1.10;;;5.90;99.90;;;;;;5008840;28;20565;-72
2022/12/07 10:29:21;;;;;;;9.10;0.90;;;6.00;99.90;;;;;;5031639;28;20485;-73
2022/12/07 10:31:55;;;;;;;5.90;0.88;;;6.00;99.90;;;;;;5023176;28;20966;-73
2022/12/07 10:34:30;;;;;;;5.30;0.70;;;6.00;99.90;;;;;;5027260;28;20465;-73
2022/12/07 10:39:54;;;;;;;7.22;0.93;;;6.10;99.90;;;;;;5031073;28;20917;-73
2022/12/07 10:42:23;;;;;;;5.15;0.70;;;6.10;99.90;;;;;;5031548;28;20448;-73
2022/12/07 10:45:06;;;;;;;5.78;0.90;;;6.10;99.90;;;;;;5013007;28;20439;-73
2022/12/07 10:47:35;;;;;;;7.65;0.80;;;6.10;99.90;;;;;;5025716;28;20916;-74
2022/12/07 10:50:29;;;;;;;6.30;0.50;;;6.00;99.90;;;;;;5025687;28;20423;-73
2022/12/07 10:53:32;;;;;;;7.07;0.53;;;6.10;99.90;;;;;;5021354;28;20412;-74
2022/12/07 10:56:09;;;;;;;5.57;0.47;;;6.10;99.90;;;;;;5030896;28;20468;-73
2022/12/07 10:58:47;;;;;;;3.83;0.40;;;6.20;99.90;;;;;;5030574;28;20418;-73
2022/12/07 11:01:33;;;;;;;7.00;0.60;;;6.20;99.90;;;;;;5031081;28;20747;-74
2022/12/07 11:04:21;;;;;;;3.33;0.38;;;6.20;99.90;;;;;;5032049;28;20427;-73
2022/12/07 11:07:13;;;;;;;4.97;0.60;;;6.30;99.90;;;;;;5032354;28;20498;-73
2022/12/07 11:09:47;;;;;;;3.45;0.40;;;6.50;99.90;;;;;;5032480;28;20765;-73
2022/12/07 11:12:36;;;;;;;5.90;0.60;;;6.90;99.90;;;;;;5032067;28;20844;-73
2022/12/07 11:15:31;;;;;;;5.85;0.70;;;7.30;99.90;;;;;;5031847;28;20455;-73
2022/12/07 11:18:14;;;;;;;5.97;0.70;;;7.50;99.90;;;;;;5032616;28;20452;-73
2022/12/07 11:20:44;;;;;;;4.22;0.40;;;7.60;99.90;;;;;;5033432;28;20419;-73
2022/12/07 11:23:40;;;;;;;5.00;0.70;;;7.70;99.90;;;;;;5001374;28;20415;-73
2022/12/07 11:26:14;;;;;;;3.72;0.40;;;7.60;99.90;;;;;;5015137;28;20429;-73
2022/12/07 11:28:46;;;;;;;4.47;0.60;;;7.50;99.90;;;;;;5031735;28;20418;-73
2022/12/07 11:31:22;;;;;;;5.88;0.60;;;7.30;99.90;;;;;;5042192;28;20502;-74
2022/12/07 11:34:15;;;;;;;3.40;0.52;;;7.10;99.90;;;;;;5024810;28;20413;-73
2022/12/07 11:36:51;;;;;;;2.80;0.40;;;7.00;99.90;;;;;;5018232;28;20423;-73
2022/12/07 11:39:26;;;;;;;5.53;0.60;;;7.00;99.90;;;;;;5017273;28;20463;-73
2022/12/07 11:42:00;;;;;;;3.78;0.25;;;7.00;99.90;;;;;;5003329;28;20473;-73
2022/12/07 11:44:51;;;;;;;6.30;1.00;;;7.20;99.90;;;;;;4995016;28;20514;-74
2022/12/07 11:47:40;;;;;;;2.80;0.35;;;7.20;99.90;;;;;;5025883;28;20449;-74
2022/12/07 11:50:26;;;;;;;2.08;0.40;;;7.10;99.90;;;;;;5028276;28;20541;-74
2022/12/07 11:53:18;;;;;;;4.53;0.40;;;7.10;99.90;;;;;;5021936;28;20434;-74
2022/12/07 11:55:57;;;;;;;4.53;0.60;;;6.90;99.90;;;;;;5022125;28;20497;-73
2022/12/07 11:58:50;;;;;;;5.18;0.80;;;6.80;99.90;;;;;;4992101;28;20415;-73
2022/12/07 12:01:30;;;;;;;4.28;0.50;;;6.70;99.90;;;;;;5010823;28;21326;-73
2022/12/07 12:04:01;;;;;;;4.25;0.57;;;6.60;99.90;;;;;;5031549;28;20935;-73
2022/12/07 12:06:26;;;;;;;3.30;0.40;;;6.60;99.90;;;;;;5030426;28;20788;-73
2022/12/07 12:09:16;;;;;;;5.57;0.40;;;6.50;99.90;;;;;;5027998;28;20425;-73
2022/12/07 12:11:56;;;;;;;9.18;0.82;;;6.50;99.90;;;;;;5027222;28;20461;-73
2022/12/07 12:14:45;;;;;;;5.68;0.80;;;6.50;99.90;;;;;;5028341;28;20457;-74
2022/12/07 12:17:11;;;;;;;6.65;0.88;;;6.50;99.90;;;;;;5016325;28;20435;-75
2022/12/07 12:20:21;;;;;;;7.82;0.80;;;6.50;99.90;;;;;;5007184;28;20530;-74
2022/12/07 12:23:13;;;;;;;6.43;1.40;;;6.60;99.90;;;;;;4929208;29;20502;-74
2022/12/07 12:25:56;;;;;;;7.95;0.88;;;6.70;99.90;;;;;;5010967;28;20509;-74
2022/12/07 12:28:41;;;;;;;8.43;1.00;;;6.80;99.90;;;;;;5002982;28;20618;-74
2022/12/07 12:31:48;;;;;;;11.07;1.48;;;7.20;99.90;;;;;;5030063;28;20434;-74
2022/12/07 12:34:37;;;;;;;8.82;0.90;;;7.30;99.90;;;;;;5033635;28;20500;-74
2022/12/07 12:37:32;;;;;;;14.23;1.73;;;7.40;99.90;;;;;;5011649;28;20434;-73
2022/12/07 12:40:16;;;;;;;7.32;0.90;;;7.50;99.90;;;;;;5013638;28;20415;-73
2022/12/07 12:42:48;;;;;;;8.07;1.08;;;7.60;99.90;;;;;;5009270;28;20474;-73
2022/12/07 12:45:21;;;;;;;15.68;1.90;;;7.80;99.90;;;;;;5010450;28;20524;-74
2022/12/07 12:48:27;;;;;;;6.27;0.57;;;7.80;99.90;;;;;;5033275;28;20502;-74
2022/12/07 12:51:31;;;;;;;10.07;0.93;;;7.80;99.90;;;;;;5017649;28;20435;-73
2022/12/07 12:54:35;;;;;;;6.00;0.60;;;7.90;99.90;;;;;;5027556;28;20431;-73
2022/12/07 12:57:07;;;;;;;3.60;0.38;;;7.90;99.90;;;;;;4922800;28;20440;-74
2022/12/07 12:59:56;;;;;;;3.88;0.32;;;8.10;99.90;;;;;;4959642;28;20961;-73
2022/12/07 13:02:32;;;;;;;6.40;0.80;;;8.20;99.90;;;;;;4988114;28;20441;-73
2022/12/07 13:05:12;;;;;;;3.83;0.40;;;8.40;99.90;;;;;;5034146;28;20434;-74
2022/12/07 13:07:44;;;;;;;4.30;0.40;;;8.40;99.90;;;;;;5015206;28;20923;-74
2022/12/07 13:10:31;;;;;;;5.47;0.77;;;8.30;99.90;;;;;;5009959;28;20951;-74
2022/12/07 13:13:15;;;;;;;4.65;0.50;;;8.20;99.90;;;;;;5026528;28;20518;-74
2022/12/07 13:15:49;;;;;;;6.22;0.70;;;8.10;99.90;;;;;;5015507;28;20411;-73
2022/12/07 13:18:30;;;;;;;7.57;1.00;;;8.00;99.90;;;;;;5020273;28;20910;-73
2022/12/07 13:20:56;;;;;;;6.70;0.98;;;7.90;99.90;;;;;;5026263;28;20438;-73
2022/12/07 13:23:37;;;;;;;8.15;1.20;;;7.80;99.90;;;;;;5026342;28;20470;-74
2022/12/07 13:26:06;;;;;;;6.95;0.93;;;7.70;99.90;;;;;;5033329;28;20805;-74